createdAt,value
2023-03-01T00:01:45.455Z,-1.87
2023-03-01T00:04:17.203Z,-1.89
2023-03-01T00:06:48.999Z,-1.94
2023-03-01T00:09:20.912Z,-1.86
2023-03-01T00:11:52.535Z,-1.80
2023-03-01T00:14:25.196Z,-1.90
2023-03-01T00:16:56.993Z,-1.88
2023-03-01T00:19:29.230Z,-1.87
2023-03-01T00:22:00.979Z,-1.92
2023-03-01T00:24:32.884Z,-1.96
2023-03-01T00:27:04.607Z,-2.00
2023-03-01T00:29:36.665Z,-1.94
2023-03-01T00:32:09.933Z,-1.93
2023-03-01T00:34:41.577Z,-2.02
2023-03-01T00:37:13.896Z,-1.94
2023-03-01T00:39:45.736Z,-1.97
2023-03-01T00:42:18.688Z,-1.98
2023-03-01T00:44:50.684Z,-2.08
2023-03-01T00:47:23.315Z,-2.09
2023-03-01T00:49:55.416Z,-2.01
2023-03-01T00:52:27.608Z,-2.04
2023-03-01T00:55:00.440Z,-2.05
2023-03-01T00:57:32.370Z,-2.08
2023-03-01T01:00:05.751Z,-2.10
2023-03-01T01:02:38.505Z,-2.09
2023-03-01T01:05:12.064Z,-2.05
2023-03-01T01:07:43.888Z,-2.02
2023-03-01T01:10:18.372Z,-2.02
2023-03-01T01:12:50.965Z,-2.05
2023-03-01T01:15:23.064Z,-2.10
2023-03-01T01:17:54.835Z,-2.17
2023-03-01T01:20:26.946Z,-2.22
2023-03-01T01:22:58.897Z,-2.25
2023-03-01T01:25:31.508Z,-2.34
2023-03-01T01:28:03.831Z,-2.23
2023-03-01T01:30:36.644Z,-2.18
2023-03-01T01:33:09.212Z,-2.15
2023-03-01T01:35:41.190Z,-2.07
2023-03-01T01:38:13.255Z,-2.12
2023-03-01T01:40:50.225Z,-2.17
2023-03-01T01:43:26.322Z,-2.10
2023-03-01T01:46:02.154Z,-2.10
2023-03-01T01:48:43.283Z,-2.04
2023-03-01T01:51:20.929Z,-1.99
2023-03-01T01:53:58.685Z,-2.02
2023-03-01T01:56:32.245Z,-2.04
2023-03-01T01:59:06.458Z,-2.05
2023-03-01T02:01:38.036Z,-2.06
2023-03-01T02:04:10.203Z,-2.13
2023-03-01T02:06:46.924Z,-2.21
2023-03-01T02:09:21.551Z,-2.10
2023-03-01T02:11:54.803Z,-2.02
2023-03-01T02:14:26.300Z,-2.00
2023-03-01T02:16:58.310Z,-2.12
2023-03-01T02:19:44.336Z,-2.12
2023-03-01T02:22:23.669Z,-2.04
2023-03-01T02:25:06.148Z,-2.08
2023-03-01T02:27:45.350Z,-2.08
2023-03-01T02:30:18.131Z,-2.10
2023-03-01T02:32:51.069Z,-2.19
2023-03-01T02:35:24.008Z,-2.24
2023-03-01T02:37:58.612Z,-2.22
2023-03-01T02:40:33.714Z,-2.24
2023-03-01T02:43:11.639Z,-2.25
2023-03-01T02:45:50.890Z,-2.19
2023-03-01T02:48:26.270Z,-2.26
2023-03-01T02:51:11.128Z,-2.16
2023-03-01T02:53:54.315Z,-2.27
2023-03-01T02:56:26.839Z,-2.36
2023-03-01T02:59:02.033Z,-2.43
2023-03-01T03:01:39.007Z,-2.25
2023-03-01T03:04:13.121Z,-2.15
2023-03-01T03:06:46.711Z,-2.14
2023-03-01T03:09:19.625Z,-2.18
2023-03-01T03:11:51.777Z,-2.21
2023-03-01T03:14:25.207Z,-2.13
2023-03-01T03:16:57.476Z,-2.25
2023-03-01T03:19:31.652Z,-2.29
2023-03-01T03:22:03.763Z,-2.28
2023-03-01T03:24:40.189Z,-2.38
2023-03-01T03:27:12.662Z,-2.33
2023-03-01T03:29:44.807Z,-2.29
2023-03-01T03:32:18.218Z,-2.30
2023-03-01T03:34:50.799Z,-2.35
2023-03-01T03:37:40.372Z,-2.42
2023-03-01T03:40:16.672Z,-2.49
2023-03-01T03:42:49.429Z,-2.22
2023-03-01T03:45:22.206Z,-2.09
2023-03-01T03:47:55.362Z,-2.24
2023-03-01T03:50:27.082Z,-2.35
2023-03-01T03:52:58.859Z,-2.38
2023-03-01T03:55:31.990Z,-2.42
2023-03-01T03:58:08.183Z,-2.44
2023-03-01T04:00:41.898Z,-2.33
2023-03-01T04:03:16.505Z,-2.20
2023-03-01T04:05:51.026Z,-2.20
2023-03-01T04:08:24.738Z,-2.37
2023-03-01T04:11:22.895Z,-2.34
2023-03-01T04:13:55.826Z,-2.37
2023-03-01T04:16:28.083Z,-2.38
2023-03-01T04:19:00.990Z,-2.30
2023-03-01T04:21:32.633Z,-2.37
2023-03-01T04:24:05.045Z,-2.47
2023-03-01T04:26:38.081Z,-2.37
2023-03-01T04:29:09.933Z,-2.41
2023-03-01T04:31:56.784Z,-2.50
2023-03-01T04:34:44.261Z,-2.45
2023-03-01T04:37:17.332Z,-2.38
2023-03-01T04:39:50.086Z,-2.26
2023-03-01T04:42:22.902Z,-2.22
2023-03-01T04:44:54.685Z,-2.25
2023-03-01T04:47:26.475Z,-2.29
2023-03-01T04:49:58.430Z,-2.33
2023-03-01T04:52:30.628Z,-2.32
2023-03-01T04:55:02.950Z,-2.32
2023-03-01T04:57:35.328Z,-2.38
2023-03-01T05:00:21.315Z,-2.52
2023-03-01T05:02:56.079Z,-2.43
2023-03-01T05:05:27.138Z,-2.30
2023-03-01T05:08:01.062Z,-2.27
2023-03-01T05:10:36.201Z,-2.21
2023-03-01T05:13:08.852Z,-2.19
2023-03-01T05:15:40.376Z,-2.20
2023-03-01T05:18:12.670Z,-2.22
2023-03-01T05:20:46.018Z,-2.25
2023-03-01T05:23:17.937Z,-2.29
2023-03-01T05:25:50.556Z,-2.12
2023-03-01T05:28:24.444Z,-2.07
2023-03-01T05:30:57.291Z,-2.08
2023-03-01T05:33:30.115Z,-2.08
2023-03-01T05:36:04.268Z,-2.03
2023-03-01T05:38:36.764Z,-2.02
2023-03-01T05:41:16.435Z,-2.03
2023-03-01T05:43:48.097Z,-1.95
2023-03-01T05:46:20.351Z,-1.82
2023-03-01T05:48:52.191Z,-1.77
2023-03-01T05:51:24.207Z,-1.76
2023-03-01T05:53:56.642Z,-1.79
2023-03-01T05:56:28.534Z,-1.76
2023-03-01T05:59:00.444Z,-1.66
2023-03-01T06:01:33.537Z,-1.53
2023-03-01T06:04:05.415Z,-1.47
2023-03-01T06:06:40.046Z,-1.36
2023-03-01T06:09:11.738Z,-1.13
2023-03-01T06:11:43.207Z,-0.88
2023-03-01T06:14:15.963Z,-0.72
2023-03-01T06:16:47.961Z,-0.56
2023-03-01T06:19:19.439Z,-0.40
2023-03-01T06:21:51.611Z,-0.19
2023-03-01T06:24:25.967Z,-0.00
2023-03-01T06:26:58.808Z,0.32
2023-03-01T06:29:31.576Z,0.57
2023-03-01T06:32:03.968Z,0.81
2023-03-01T06:34:36.815Z,1.02
2023-03-01T06:37:09.102Z,1.18
2023-03-01T06:39:41.672Z,1.37
2023-03-01T06:42:13.880Z,1.52
2023-03-01T06:44:47.078Z,1.65
2023-03-01T06:47:19.503Z,1.87
2023-03-01T06:49:51.296Z,1.98
2023-03-01T06:52:23.297Z,2.13
2023-03-01T06:54:55.255Z,2.36
2023-03-01T06:57:27.377Z,2.53
2023-03-01T07:00:02.492Z,2.70
2023-03-01T07:02:35.507Z,3.01
2023-03-01T07:05:10.818Z,3.14
2023-03-01T07:07:42.498Z,3.52
2023-03-01T07:10:15.917Z,3.76
2023-03-01T07:12:48.041Z,4.01
2023-03-01T07:15:21.861Z,4.15
2023-03-01T07:17:56.434Z,4.31
2023-03-01T07:20:29.317Z,4.49
2023-03-01T07:23:01.895Z,4.51
2023-03-01T07:25:35.084Z,4.52
2023-03-01T07:28:08.269Z,4.55
2023-03-01T07:30:41.694Z,4.64
2023-03-01T07:33:14.473Z,4.65
2023-03-01T07:35:46.856Z,4.74
2023-03-01T07:38:19.342Z,4.84
2023-03-01T07:40:52.321Z,4.83
2023-03-01T07:43:25.392Z,4.96
2023-03-01T07:46:00.746Z,5.06
2023-03-01T07:48:34.436Z,5.13
2023-03-01T07:51:09.478Z,5.37
2023-03-01T07:53:42.749Z,5.44
2023-03-01T07:56:19.067Z,5.44
2023-03-01T07:58:51.636Z,5.36
2023-03-01T08:01:25.387Z,5.48
2023-03-01T08:03:58.200Z,5.63
2023-03-01T08:06:31.265Z,5.79
2023-03-01T08:09:04.352Z,6.08
2023-03-01T08:11:39.297Z,6.27
2023-03-01T08:14:13.390Z,6.39
2023-03-01T08:16:47.581Z,6.52
2023-03-01T08:19:22.184Z,6.58
2023-03-01T08:21:56.270Z,6.72
2023-03-01T08:24:29.142Z,6.82
2023-03-01T08:27:03.944Z,6.94
2023-03-01T08:29:35.253Z,6.91
2023-03-01T08:32:08.149Z,6.99
2023-03-01T08:34:42.484Z,7.21
2023-03-01T08:37:15.471Z,7.33
2023-03-01T08:39:48.114Z,7.38
2023-03-01T08:42:20.827Z,7.35
2023-03-01T08:44:53.793Z,7.38
2023-03-01T08:47:26.350Z,7.50
2023-03-01T08:49:59.391Z,7.54
2023-03-01T08:52:33.391Z,7.41
2023-03-01T08:55:08.425Z,7.37
2023-03-01T08:57:41.874Z,7.35
2023-03-01T09:00:19.062Z,7.31
2023-03-01T09:02:53.476Z,7.43
2023-03-01T09:05:26.345Z,7.57
2023-03-01T09:08:02.033Z,7.47
2023-03-01T09:10:34.052Z,7.50
2023-03-01T09:13:06.713Z,7.48
2023-03-01T09:15:39.628Z,7.35
2023-03-01T09:18:13.072Z,7.23
2023-03-01T09:20:45.013Z,7.18
2023-03-01T09:23:17.196Z,7.09
2023-03-01T09:25:51.217Z,7.01
2023-03-01T09:28:29.959Z,6.92
2023-03-01T09:31:05.680Z,7.04
2023-03-01T09:33:40.114Z,7.04
2023-03-01T09:36:17.785Z,6.96
2023-03-01T09:38:51.231Z,6.87
2023-03-01T09:41:39.795Z,6.90
2023-03-01T09:44:19.158Z,6.84
2023-03-01T09:46:53.474Z,6.93
2023-03-01T09:49:29.228Z,6.93
2023-03-01T09:52:16.351Z,6.92
2023-03-01T09:54:49.726Z,6.97
2023-03-01T09:57:30.270Z,6.93
2023-03-01T10:00:21.191Z,6.94
2023-03-01T10:03:01.724Z,7.01
2023-03-01T10:05:44.270Z,7.05
2023-03-01T10:08:43.141Z,7.18
2023-03-01T10:11:30.030Z,7.41
2023-03-01T10:14:06.109Z,7.61
2023-03-01T10:16:48.360Z,7.63
2023-03-01T10:19:27.799Z,7.64
2023-03-01T10:22:06.564Z,7.69
2023-03-01T10:24:41.397Z,7.77
2023-03-01T10:27:15.306Z,7.69
2023-03-01T10:29:53.716Z,7.58
2023-03-01T10:32:26.316Z,7.54
2023-03-01T10:34:58.678Z,7.43
2023-03-01T10:37:31.397Z,7.40
2023-03-01T10:40:09.753Z,7.47
2023-03-01T10:42:50.841Z,7.56
2023-03-01T10:45:35.477Z,7.54
2023-03-01T10:48:19.715Z,7.62
2023-03-01T10:51:08.450Z,7.67
2023-03-01T10:53:44.360Z,7.53
2023-03-01T10:56:18.671Z,7.43
2023-03-01T10:59:03.230Z,7.40
2023-03-01T11:01:38.622Z,7.31
2023-03-01T11:04:18.776Z,7.20
2023-03-01T11:07:03.638Z,7.21
2023-03-01T11:09:40.188Z,7.17
2023-03-01T11:12:19.318Z,7.18
2023-03-01T11:14:58.449Z,7.27
2023-03-01T11:17:47.929Z,7.32
2023-03-01T11:20:32.751Z,7.38
2023-03-01T11:23:10.996Z,7.40
2023-03-01T11:25:46.603Z,7.42
2023-03-01T11:28:23.323Z,7.43
2023-03-01T11:31:08.801Z,7.44
2023-03-01T11:33:47.628Z,7.45
2023-03-01T11:36:27.487Z,7.62
2023-03-01T11:39:05.143Z,7.64
2023-03-01T11:41:43.000Z,7.62
2023-03-01T11:44:22.746Z,7.69
2023-03-01T11:47:18.668Z,7.71
2023-03-01T11:50:12.607Z,7.68
2023-03-01T11:53:00.505Z,7.65
2023-03-01T11:55:54.997Z,7.65
2023-03-01T11:58:47.072Z,7.67
2023-03-01T12:01:42.772Z,7.74
2023-03-01T12:04:37.990Z,7.74
2023-03-01T12:07:20.292Z,7.70
2023-03-01T12:10:09.558Z,7.75
2023-03-01T12:12:56.352Z,7.67
2023-03-01T12:15:51.065Z,7.68
2023-03-01T12:18:55.807Z,7.75
2023-03-01T12:21:43.307Z,7.76
2023-03-01T12:24:42.509Z,7.86
2023-03-01T12:27:41.719Z,7.95
2023-03-01T12:30:27.473Z,7.94
2023-03-01T12:33:15.307Z,7.92
2023-03-01T12:36:13.197Z,8.00
2023-03-01T12:38:50.360Z,7.97
2023-03-01T12:41:51.540Z,7.92
2023-03-01T12:44:43.903Z,7.82
2023-03-01T12:47:32.031Z,7.79
2023-03-01T12:50:14.340Z,7.71
2023-03-01T12:52:50.827Z,7.72
2023-03-01T12:55:33.085Z,7.70
2023-03-01T12:58:22.838Z,7.68
2023-03-01T13:01:05.486Z,7.76
2023-03-01T13:03:49.011Z,7.78
2023-03-01T13:06:41.335Z,7.81
2023-03-01T13:09:27.553Z,7.86
2023-03-01T13:12:00.750Z,7.84
2023-03-01T13:14:50.497Z,7.91
2023-03-01T13:17:48.265Z,7.82
2023-03-01T13:20:23.809Z,7.86
2023-03-01T13:23:10.834Z,7.90
2023-03-01T13:26:14.117Z,7.94
2023-03-01T13:29:02.350Z,7.99
2023-03-01T13:32:06.031Z,8.09
2023-03-01T13:35:05.008Z,8.01
2023-03-01T13:37:40.604Z,8.06
2023-03-01T13:40:49.546Z,8.16
2023-03-01T13:43:38.519Z,8.06
2023-03-01T13:46:19.814Z,7.98
2023-03-01T13:48:55.078Z,7.94
2023-03-01T13:51:32.194Z,7.93
2023-03-01T13:54:04.462Z,7.89
2023-03-01T13:56:41.437Z,7.82
2023-03-01T13:59:19.556Z,7.78
2023-03-01T14:01:57.197Z,7.80
2023-03-01T14:04:32.752Z,7.82
2023-03-01T14:07:23.301Z,7.83
2023-03-01T14:09:58.134Z,7.83
2023-03-01T14:12:35.275Z,7.77
2023-03-01T14:15:12.328Z,7.69
2023-03-01T14:18:02.495Z,7.69
2023-03-01T14:20:40.758Z,7.92
2023-03-01T14:23:18.244Z,7.95
2023-03-01T14:25:53.937Z,7.80
2023-03-01T14:28:30.160Z,7.74
2023-03-01T14:31:04.005Z,7.68
2023-03-01T14:33:37.833Z,7.58
2023-03-01T14:36:12.844Z,7.52
2023-03-01T14:38:48.134Z,7.42
2023-03-01T14:41:22.855Z,7.53
2023-03-01T14:43:57.637Z,7.49
2023-03-01T14:46:30.487Z,7.47
2023-03-01T14:49:07.470Z,7.47
2023-03-01T14:51:43.997Z,7.52
2023-03-01T14:54:27.441Z,7.52
2023-03-01T14:57:04.358Z,7.39
2023-03-01T14:59:38.641Z,7.34
2023-03-01T15:02:18.437Z,7.46
2023-03-01T15:04:54.489Z,7.51
2023-03-01T15:07:29.436Z,7.46
2023-03-01T15:10:02.448Z,7.37
2023-03-01T15:12:43.867Z,7.29
2023-03-01T15:15:39.321Z,7.28
2023-03-01T15:18:19.790Z,7.17
2023-03-01T15:20:52.777Z,7.12
2023-03-01T15:23:27.688Z,7.06
2023-03-01T15:26:01.875Z,7.02
2023-03-01T15:28:36.298Z,7.02
2023-03-01T15:31:21.081Z,6.86
2023-03-01T15:33:53.358Z,6.73
2023-03-01T15:36:43.505Z,6.75
2023-03-01T15:39:39.805Z,6.70
2023-03-01T15:42:14.440Z,6.78
2023-03-01T15:44:47.609Z,6.76
2023-03-01T15:47:32.369Z,6.74
2023-03-01T15:50:05.473Z,6.70
2023-03-01T15:52:44.278Z,6.65
2023-03-01T15:55:22.180Z,6.48
2023-03-01T15:58:01.839Z,6.44
2023-03-01T16:00:34.535Z,6.49
2023-03-01T16:03:06.567Z,6.51
2023-03-01T16:05:40.306Z,6.46
2023-03-01T16:08:12.971Z,6.46
2023-03-01T16:10:46.161Z,6.37
2023-03-01T16:13:18.699Z,6.20
2023-03-01T16:15:51.211Z,6.19
2023-03-01T16:18:25.542Z,6.03
2023-03-01T16:20:57.940Z,5.89
2023-03-01T16:23:30.070Z,5.88
2023-03-01T16:26:06.094Z,5.87
2023-03-01T16:28:39.680Z,5.81
2023-03-01T16:31:13.311Z,5.70
2023-03-01T16:33:51.223Z,5.65
2023-03-01T16:36:26.022Z,5.52
2023-03-01T16:38:57.618Z,5.57
2023-03-01T16:41:33.112Z,5.58
2023-03-01T16:44:06.263Z,5.43
2023-03-01T16:46:39.797Z,5.35
2023-03-01T16:49:13.080Z,5.20
2023-03-01T16:51:46.445Z,5.03
2023-03-01T16:54:19.950Z,5.04
2023-03-01T16:56:53.211Z,5.02
2023-03-01T16:59:27.203Z,4.95
2023-03-01T17:01:59.309Z,4.84
2023-03-01T17:04:31.240Z,4.80
2023-03-01T17:07:04.260Z,4.76
2023-03-01T17:09:40.697Z,4.74
2023-03-01T17:12:14.895Z,4.71
2023-03-01T17:14:50.072Z,4.66
2023-03-01T17:17:27.305Z,4.60
2023-03-01T17:20:02.333Z,4.44
2023-03-01T17:22:35.850Z,4.32
2023-03-01T17:25:11.442Z,4.35
2023-03-01T17:27:44.571Z,4.32
2023-03-01T17:30:20.560Z,4.41
2023-03-01T17:32:57.826Z,4.43
2023-03-01T17:35:37.464Z,4.37
2023-03-01T17:38:11.125Z,4.33
2023-03-01T17:40:47.223Z,4.32
2023-03-01T17:43:22.094Z,4.36
2023-03-01T17:45:55.897Z,4.27
2023-03-01T17:48:29.178Z,4.21
2023-03-01T17:51:01.627Z,4.07
2023-03-01T17:53:35.143Z,3.96
2023-03-01T17:56:10.472Z,3.91
2023-03-01T17:58:43.995Z,3.82
2023-03-01T18:01:20.909Z,3.82
2023-03-01T18:03:56.126Z,3.82
2023-03-01T18:06:30.814Z,3.67
2023-03-01T18:09:02.786Z,3.59
2023-03-01T18:11:41.370Z,3.56
2023-03-01T18:14:17.611Z,3.70
2023-03-01T18:16:51.517Z,3.64
2023-03-01T18:19:25.632Z,3.39
2023-03-01T18:22:07.649Z,3.43
2023-03-01T18:24:43.904Z,3.48
2023-03-01T18:27:18.018Z,3.33
2023-03-01T18:29:52.819Z,3.30
2023-03-01T18:32:26.405Z,3.23
2023-03-01T18:35:00.766Z,3.11
2023-03-01T18:37:35.364Z,2.99
2023-03-01T18:40:13.170Z,2.91
2023-03-01T18:42:47.365Z,2.95
2023-03-01T18:45:23.201Z,2.96
2023-03-01T18:48:00.129Z,2.97
2023-03-01T18:50:32.835Z,2.94
2023-03-01T18:53:07.343Z,2.89
2023-03-01T18:55:42.201Z,2.82
2023-03-01T18:58:16.174Z,2.85
2023-03-01T19:00:49.669Z,2.94
2023-03-01T19:03:23.693Z,2.93
2023-03-01T19:05:57.941Z,2.82
2023-03-01T19:08:39.266Z,2.78
2023-03-01T19:11:14.532Z,2.76
2023-03-01T19:13:57.287Z,2.80
2023-03-01T19:16:33.788Z,2.74
2023-03-01T19:19:10.531Z,2.67
2023-03-01T19:21:56.035Z,2.69
2023-03-01T19:24:38.107Z,2.86
2023-03-01T19:27:12.308Z,2.83
2023-03-01T19:29:47.095Z,2.73
2023-03-01T19:32:21.598Z,2.56
2023-03-01T19:34:58.655Z,2.50
2023-03-01T19:37:35.865Z,2.49
2023-03-01T19:40:11.883Z,2.46
2023-03-01T19:42:47.481Z,2.46
2023-03-01T19:45:31.840Z,2.41
2023-03-01T19:48:08.698Z,2.44
2023-03-01T19:50:46.105Z,2.43
2023-03-01T19:53:23.736Z,2.33
2023-03-01T19:56:08.161Z,2.30
2023-03-01T19:58:43.111Z,2.23
2023-03-01T20:01:24.761Z,2.21
2023-03-01T20:03:57.750Z,2.21
2023-03-01T20:06:31.909Z,2.18
2023-03-01T20:09:19.301Z,2.09
2023-03-01T20:11:54.215Z,2.16
2023-03-01T20:14:28.101Z,2.18
2023-03-01T20:17:10.736Z,2.15
2023-03-01T20:19:46.271Z,2.11
2023-03-01T20:22:19.669Z,2.12
2023-03-01T20:24:53.165Z,2.10
2023-03-01T20:27:27.482Z,2.07
2023-03-01T20:30:01.955Z,2.00
2023-03-01T20:32:40.392Z,2.02
2023-03-01T20:35:17.219Z,2.05
2023-03-01T20:37:50.215Z,1.98
2023-03-01T20:40:29.412Z,1.91
2023-03-01T20:43:04.161Z,1.93
2023-03-01T20:45:40.430Z,1.94
2023-03-01T20:48:13.376Z,1.91
2023-03-01T20:50:48.433Z,1.94
2023-03-01T20:53:21.793Z,1.96
2023-03-01T20:55:54.435Z,1.90
2023-03-01T20:58:27.771Z,1.89
2023-03-01T21:01:01.277Z,1.90
2023-03-01T21:03:35.451Z,1.85
2023-03-01T21:06:10.104Z,1.81
2023-03-01T21:08:44.600Z,1.83
2023-03-01T21:11:25.713Z,1.71
2023-03-01T21:13:58.595Z,1.69
2023-03-01T21:16:31.055Z,1.71
2023-03-01T21:19:05.999Z,1.73
2023-03-01T21:21:37.810Z,1.75
2023-03-01T21:24:12.098Z,1.71
2023-03-01T21:26:46.474Z,1.64
2023-03-01T21:29:18.750Z,1.54
2023-03-01T21:31:51.428Z,1.54
2023-03-01T21:34:25.178Z,1.51
2023-03-01T21:36:59.393Z,1.39
2023-03-01T21:39:31.760Z,1.39
2023-03-01T21:42:06.839Z,1.37
2023-03-01T21:44:38.985Z,1.29
2023-03-01T21:47:11.937Z,1.41
2023-03-01T21:49:44.351Z,1.39
2023-03-01T21:52:17.292Z,1.31
2023-03-01T21:54:51.977Z,1.27
2023-03-01T21:57:24.644Z,1.20
2023-03-01T21:59:56.547Z,1.26
2023-03-01T22:02:30.137Z,1.31
2023-03-01T22:05:02.344Z,1.19
2023-03-01T22:07:35.435Z,1.16
2023-03-01T22:10:08.678Z,1.24
2023-03-01T22:12:41.806Z,1.21
2023-03-01T22:15:15.154Z,1.20
2023-03-01T22:17:47.374Z,1.28
2023-03-01T22:20:21.071Z,1.44
2023-03-01T22:22:52.986Z,1.42
2023-03-01T22:25:25.366Z,1.37
2023-03-01T22:27:57.391Z,1.33
2023-03-01T22:30:29.401Z,1.31
2023-03-01T22:33:01.389Z,1.41
2023-03-01T22:35:33.051Z,1.28
2023-03-01T22:38:04.824Z,1.31
2023-03-01T22:40:39.045Z,1.38
2023-03-01T22:43:11.307Z,1.41
2023-03-01T22:45:43.974Z,1.50
2023-03-01T22:48:15.627Z,1.47
2023-03-01T22:50:48.086Z,1.32
2023-03-01T22:53:20.150Z,1.23
2023-03-01T22:55:51.787Z,1.19
2023-03-01T22:58:23.668Z,1.31
2023-03-01T23:00:55.718Z,1.20
2023-03-01T23:03:27.659Z,1.11
2023-03-01T23:05:59.197Z,1.08
2023-03-01T23:08:31.012Z,1.00
2023-03-01T23:11:03.158Z,0.97
2023-03-01T23:13:35.031Z,1.01
2023-03-01T23:16:07.681Z,1.09
2023-03-01T23:18:41.184Z,1.05
2023-03-01T23:21:15.074Z,1.05
2023-03-01T23:23:47.709Z,1.08
2023-03-01T23:26:22.551Z,1.12
2023-03-01T23:28:52.596Z,1.04
2023-03-01T23:31:25.891Z,1.00
2023-03-01T23:33:57.496Z,0.88
2023-03-01T23:36:32.570Z,0.80
2023-03-01T23:39:07.888Z,0.72
2023-03-01T23:41:40.972Z,0.71
2023-03-01T23:44:18.441Z,0.73
2023-03-01T23:46:51.115Z,0.85
2023-03-01T23:49:25.098Z,0.93
2023-03-01T23:51:56.938Z,0.86
2023-03-01T23:54:29.342Z,0.87
2023-03-01T23:57:02.475Z,0.72
2023-03-01T23:59:34.070Z,0.65
